sensor_id;sensor_type;location;lat;lon;timestamp;pressure;altitude;pressure_sealevel;temperature;humidity
70133;BME280;57495;49.922;7.966;2023-05-13T00:00:48;100156.63;;;12.05;100.00
70133;BME280;57495;49.922;7.966;2023-05-13T00:02:49;100159.66;;;12.10;100.00
70133;BME280;57495;49.922;7.966;2023-05-13T00:04:51;100151.94;;;12.07;100.00
70133;BME280;57495;49.922;7.966;2023-05-13T00:06:52;100159.16;;;12.07;100.00
70133;BME280;57495;49.922;7.966;2023-05-13T00:08:54;100160.28;;;12.04;100.00
70133;BME280;57495;49.922;7.966;2023-05-13T00:10:55;100150.94;;;12.08;100.00
70133;BME280;57495;49.922;7.966;2023-05-13T00:12:56;100150.38;;;12.05;100.00
70133;BME280;57495;49.922;7.966;2023-05-13T00:14:59;100144.47;;;12.01;100.00
70133;BME280;57495;49.922;7.966;2023-05-13T00:17:01;100148.44;;;11.97;100.00
70133;BME280;57495;49.922;7.966;2023-05-13T00:19:03;100145.50;;;12.00;100.00
70133;BME280;57495;49.922;7.966;2023-05-13T00:21:05;100146.47;;;11.99;100.00
70133;BME280;57495;49.922;7.966;2023-05-13T00:23:08;100157.50;;;11.96;100.00
70133;BME280;57495;49.922;7.966;2023-05-13T00:25:10;100153.81;;;11.97;100.00
70133;BME280;57495;49.922;7.966;2023-05-13T00:27:11;100155.25;;;11.91;100.00
70133;BME280;57495;49.922;7.966;2023-05-13T00:29:13;100143.94;;;11.88;100.00
70133;BME280;57495;49.922;7.966;2023-05-13T00:31:16;100136.50;;;11.82;100.00
70133;BME280;57495;49.922;7.966;2023-05-13T00:33:17;100134.13;;;11.78;100.00
70133;BME280;57495;49.922;7.966;2023-05-13T00:35:18;100133.03;;;11.71;100.00
70133;BME280;57495;49.922;7.966;2023-05-13T00:37:20;100130.50;;;11.70;100.00
70133;BME280;57495;49.922;7.966;2023-05-13T00:39:21;100133.88;;;11.72;100.00
70133;BME280;57495;49.922;7.966;2023-05-13T00:41:23;100139.09;;;11.73;100.00
70133;BME280;57495;49.922;7.966;2023-05-13T00:43:25;100144.59;;;11.72;100.00
70133;BME280;57495;49.922;7.966;2023-05-13T00:45:26;100141.66;;;11.65;100.00
70133;BME280;57495;49.922;7.966;2023-05-13T00:47:29;100126.28;;;11.67;100.00
70133;BME280;57495;49.922;7.966;2023-05-13T00:49:31;100122.03;;;11.74;100.00
70133;BME280;57495;49.922;7.966;2023-05-13T00:51:33;100132.19;;;11.71;100.00
70133;BME280;57495;49.922;7.966;2023-05-13T00:53:35;100136.44;;;11.73;100.00
70133;BME280;57495;49.922;7.966;2023-05-13T00:55:40;100137.00;;;11.67;100.00
70133;BME280;57495;49.922;7.966;2023-05-13T00:57:42;100144.34;;;11.65;100.00
70133;BME280;57495;49.922;7.966;2023-05-13T00:59:43;100133.47;;;11.67;100.00
70133;BME280;57495;49.922;7.966;2023-05-13T01:01:50;100138.69;;;11.68;100.00
70133;BME280;57495;49.922;7.966;2023-05-13T01:04:02;100131.50;;;11.69;100.00
70133;BME280;57495;49.922;7.966;2023-05-13T01:06:10;100131.06;;;11.73;100.00
70133;BME280;57495;49.922;7.966;2023-05-13T01:08:19;100137.13;;;11.75;100.00
70133;BME280;57495;49.922;7.966;2023-05-13T01:10:31;100133.75;;;11.73;100.00
70133;BME280;57495;49.922;7.966;2023-05-13T01:12:35;100132.03;;;11.72;100.00
70133;BME280;57495;49.922;7.966;2023-05-13T01:14:42;100136.09;;;11.76;100.00
70133;BME280;57495;49.922;7.966;2023-05-13T01:16:48;100131.59;;;11.77;100.00
70133;BME280;57495;49.922;7.966;2023-05-13T01:18:57;100130.75;;;11.76;100.00
70133;BME280;57495;49.922;7.966;2023-05-13T01:21:02;100135.81;;;11.79;100.00
70133;BME280;57495;49.922;7.966;2023-05-13T01:23:06;100133.44;;;11.76;100.00
70133;BME280;57495;49.922;7.966;2023-05-13T01:25:08;100131.00;;;11.83;100.00
70133;BME280;57495;49.922;7.966;2023-05-13T01:27:09;100139.19;;;11.82;100.00
70133;BME280;57495;49.922;7.966;2023-05-13T01:29:11;100135.22;;;11.86;100.00
70133;BME280;57495;49.922;7.966;2023-05-13T01:31:13;100134.25;;;11.87;100.00
70133;BME280;57495;49.922;7.966;2023-05-13T01:33:15;100133.84;;;11.82;100.00
70133;BME280;57495;49.922;7.966;2023-05-13T01:35:18;100127.50;;;11.83;100.00
70133;BME280;57495;49.922;7.966;2023-05-13T01:37:20;100134.13;;;11.78;100.00
70133;BME280;57495;49.922;7.966;2023-05-13T01:39:24;100131.59;;;11.77;100.00
70133;BME280;57495;49.922;7.966;2023-05-13T01:41:25;100132.13;;;11.80;100.00
70133;BME280;57495;49.922;7.966;2023-05-13T01:43:27;100137.81;;;11.77;100.00
70133;BME280;57495;49.922;7.966;2023-05-13T01:45:29;100127.38;;;11.74;100.00
70133;BME280;57495;49.922;7.966;2023-05-13T01:47:31;100131.16;;;11.82;100.00
70133;BME280;57495;49.922;7.966;2023-05-13T01:49:32;100133.97;;;11.80;100.00
70133;BME280;57495;49.922;7.966;2023-05-13T01:51:34;100131.16;;;11.82;100.00
70133;BME280;57495;49.922;7.966;2023-05-13T01:53:35;100129.56;;;11.89;100.00
70133;BME280;57495;49.922;7.966;2023-05-13T01:55:38;100134.38;;;11.85;100.00
70133;BME280;57495;49.922;7.966;2023-05-13T01:57:39;100129.16;;;11.84;100.00
70133;BME280;57495;49.922;7.966;2023-05-13T01:59:41;100128.47;;;11.82;100.00
70133;BME280;57495;49.922;7.966;2023-05-13T02:01:42;100124.28;;;11.79;100.00
70133;BME280;57495;49.922;7.966;2023-05-13T02:03:44;100133.97;;;11.80;100.00
70133;BME280;57495;49.922;7.966;2023-05-13T02:05:46;100134.44;;;11.75;100.00
70133;BME280;57495;49.922;7.966;2023-05-13T02:07:47;100136.44;;;11.73;100.00
70133;BME280;57495;49.922;7.966;2023-05-13T02:09:49;100127.66;;;11.71;100.00
70133;BME280;57495;49.922;7.966;2023-05-13T02:11:51;100127.28;;;11.66;100.00
70133;BME280;57495;49.922;7.966;2023-05-13T02:13:53;100130.25;;;11.63;100.00
70133;BME280;57495;49.922;7.966;2023-05-13T02:15:54;100132.66;;;11.66;100.00
70133;BME280;57495;49.922;7.966;2023-05-13T02:17:56;100125.88;;;11.62;100.00
70133;BME280;57495;49.922;7.966;2023-05-13T02:19:57;100125.19;;;11.60;100.00
70133;BME280;57495;49.922;7.966;2023-05-13T02:21:58;100117.53;;;11.65;100.00
70133;BME280;57495;49.922;7.966;2023-05-13T02:24:00;100122.81;;;11.57;100.00
70133;BME280;57495;49.922;7.966;2023-05-13T02:26:02;100119.81;;;11.60;100.00
70133;BME280;57495;49.922;7.966;2023-05-13T02:28:04;100122.34;;;11.61;100.00
70133;BME280;57495;49.922;7.966;2023-05-13T02:30:07;100113.91;;;11.56;100.00
70133;BME280;57495;49.922;7.966;2023-05-13T02:32:08;100119.44;;;11.55;100.00
70133;BME280;57495;49.922;7.966;2023-05-13T02:34:10;100115.06;;;11.54;100.00
70133;BME280;57495;49.922;7.966;2023-05-13T02:36:11;100117.03;;;11.52;100.00
70133;BME280;57495;49.922;7.966;2023-05-13T02:38:12;100117.31;;;11.49;100.00
70133;BME280;57495;49.922;7.966;2023-05-13T02:40:14;100117.75;;;11.54;100.00
70133;BME280;57495;49.922;7.966;2023-05-13T02:42:15;100117.19;;;11.50;100.00
70133;BME280;57495;49.922;7.966;2023-05-13T02:44:18;100121.38;;;11.53;100.00
70133;BME280;57495;49.922;7.966;2023-05-13T02:46:19;100118.44;;;11.56;100.00
70133;BME280;57495;49.922;7.966;2023-05-13T02:48:21;100118.44;;;11.56;100.00
70133;BME280;57495;49.922;7.966;2023-05-13T02:50:22;100114.78;;;11.57;100.00
70133;BME280;57495;49.922;7.966;2023-05-13T02:52:24;100119.88;;;11.50;100.00
70133;BME280;57495;49.922;7.966;2023-05-13T02:54:25;100119.56;;;11.53;100.00
70133;BME280;57495;49.922;7.966;2023-05-13T02:56:27;100120.13;;;11.57;100.00
70133;BME280;57495;49.922;7.966;2023-05-13T02:58:28;100122.34;;;11.61;100.00
70133;BME280;57495;49.922;7.966;2023-05-13T03:00:31;100112.47;;;11.62;100.00
70133;BME280;57495;49.922;7.966;2023-05-13T03:02:33;100126.28;;;11.67;100.00
70133;BME280;57495;49.922;7.966;2023-05-13T03:04:35;100127.97;;;11.68;100.00
70133;BME280;57495;49.922;7.966;2023-05-13T03:06:36;100120.09;;;11.67;100.00
70133;BME280;57495;49.922;7.966;2023-05-13T03:08:37;100126.88;;;11.61;100.00
70133;BME280;57495;49.922;7.966;2023-05-13T03:10:39;100115.88;;;11.64;100.00
70133;BME280;57495;49.922;7.966;2023-05-13T03:12:40;100115.88;;;11.64;100.00
70133;BME280;57495;49.922;7.966;2023-05-13T03:14:42;100116.84;;;11.63;100.00
70133;BME280;57495;49.922;7.966;2023-05-13T03:16:45;100112.47;;;11.62;100.00
70133;BME280;57495;49.922;7.966;2023-05-13T03:18:47;100116.84;;;11.63;100.00
70133;BME280;57495;49.922;7.966;2023-05-13T03:20:48;100125.19;;;11.60;100.00
70133;BME280;57495;49.922;7.966;2023-05-13T03:22:49;100119.81;;;11.60;100.00
70133;BME280;57495;49.922;7.966;2023-05-13T03:24:51;100125.19;;;11.60;100.00
70133;BME280;57495;49.922;7.966;2023-05-13T03:26:52;100127.72;;;11.61;100.00
70133;BME280;57495;49.922;7.966;2023-05-13T03:28:54;100132.94;;;11.63;100.00
70133;BME280;57495;49.922;7.966;2023-05-13T03:30:55;100123.75;;;11.66;100.00
70133;BME280;57495;49.922;7.966;2023-05-13T03:32:58;100125.72;;;11.64;100.00
70133;BME280;57495;49.922;7.966;2023-05-13T03:34:59;100128.31;;;11.55;100.00
70133;BME280;57495;49.922;7.966;2023-05-13T03:37:01;100127.00;;;11.59;100.00
70133;BME280;57495;49.922;7.966;2023-05-13T03:39:02;100126.19;;;11.49;100.00
70133;BME280;57495;49.922;7.966;2023-05-13T03:41:04;100132.81;;;11.55;100.00
70133;BME280;57495;49.922;7.966;2023-05-13T03:43:05;100122.81;;;11.57;100.00
70133;BME280;57495;49.922;7.966;2023-05-13T03:45:08;100120.97;;;11.57;100.00
70133;BME280;57495;49.922;7.966;2023-05-13T03:47:10;100130.84;;;11.57;100.00
70133;BME280;57495;49.922;7.966;2023-05-13T03:49:13;100123.91;;;11.64;100.00
70133;BME280;57495;49.922;7.966;2023-05-13T03:51:14;100128.25;;;11.65;100.00
70133;BME280;57495;49.922;7.966;2023-05-13T03:53:16;100128.72;;;11.60;100.00
70133;BME280;57495;49.922;7.966;2023-05-13T03:55:17;100133.06;;;11.61;100.00
70133;BME280;57495;49.922;7.966;2023-05-13T03:57:19;100138.19;;;11.55;100.00
70133;BME280;57495;49.922;7.966;2023-05-13T03:59:20;100143.28;;;11.48;100.00
70133;BME280;57495;49.922;7.966;2023-05-13T04:01:21;100142.44;;;11.48;100.00
70133;BME280;57495;49.922;7.966;2023-05-13T04:03:23;100138.59;;;11.50;100.00
70133;BME280;57495;49.922;7.966;2023-05-13T04:05:25;100144.53;;;11.54;100.00
70133;BME280;57495;49.922;7.966;2023-05-13T04:07:27;100143.81;;;11.52;100.00
70133;BME280;57495;49.922;7.966;2023-05-13T04:09:28;100146.91;;;11.47;100.00
70133;BME280;57495;49.922;7.966;2023-05-13T04:11:30;100143.13;;;11.50;100.00
70133;BME280;57495;49.922;7.966;2023-05-13T04:13:32;100147.78;;;11.48;100.00
70133;BME280;57495;49.922;7.966;2023-05-13T04:15:34;100152.44;;;11.46;100.00
70133;BME280;57495;49.922;7.966;2023-05-13T04:17:35;100148.81;;;11.37;100.00
70133;BME280;57495;49.922;7.966;2023-05-13T04:19:37;100147.22;;;11.34;100.00
70133;BME280;57495;49.922;7.966;2023-05-13T04:21:39;100152.91;;;11.21;100.00
70133;BME280;57495;49.922;7.966;2023-05-13T04:23:41;100152.91;;;11.31;100.00
70133;BME280;57495;49.922;7.966;2023-05-13T04:25:42;100159.38;;;11.38;100.00
70133;BME280;57495;49.922;7.966;2023-05-13T04:27:44;100156.53;;;11.40;100.00
70133;BME280;57495;49.922;7.966;2023-05-13T04:29:46;100154.84;;;11.39;100.00
70133;BME280;57495;49.922;7.966;2023-05-13T04:31:48;100155.97;;;11.46;100.00
70133;BME280;57495;49.922;7.966;2023-05-13T04:33:49;100161.56;;;11.53;100.00
70133;BME280;57495;49.922;7.966;2023-05-13T04:35:51;100163.81;;;11.57;100.00
70133;BME280;57495;49.922;7.966;2023-05-13T04:37:53;100164.09;;;11.64;100.00
70133;BME280;57495;49.922;7.966;2023-05-13T04:39:55;100170.16;;;11.66;100.00
70133;BME280;57495;49.922;7.966;2023-05-13T04:41:56;100171.69;;;11.69;100.00
70133;BME280;57495;49.922;7.966;2023-05-13T04:43:58;100170.94;;;11.76;100.00
70133;BME280;57495;49.922;7.966;2023-05-13T04:45:59;100178.88;;;11.68;100.00
70133;BME280;57495;49.922;7.966;2023-05-13T04:48:00;100174.81;;;11.54;100.00
70133;BME280;57495;49.922;7.966;2023-05-13T04:50:02;100181.59;;;11.49;100.00
70133;BME280;57495;49.922;7.966;2023-05-13T04:52:05;100176.56;;;11.46;100.00
70133;BME280;57495;49.922;7.966;2023-05-13T04:54:08;100177.81;;;11.51;100.00
70133;BME280;57495;49.922;7.966;2023-05-13T04:56:10;100179.63;;;11.60;100.00
70133;BME280;57495;49.922;7.966;2023-05-13T04:58:11;100175.78;;;11.63;100.00
70133;BME280;57495;49.922;7.966;2023-05-13T05:00:14;100178.75;;;11.60;100.00
70133;BME280;57495;49.922;7.966;2023-05-13T05:02:15;100178.59;;;11.61;100.00
70133;BME280;57495;49.922;7.966;2023-05-13T05:04:17;100178.31;;;11.65;100.00
70133;BME280;57495;49.922;7.966;2023-05-13T05:06:18;100179.28;;;11.64;100.00
70133;BME280;57495;49.922;7.966;2023-05-13T05:08:21;100185.53;;;11.64;100.00
70133;BME280;57495;49.922;7.966;2023-05-13T05:10:23;100184.66;;;11.64;100.00
70133;BME280;57495;49.922;7.966;2023-05-13T05:12:25;100181.56;;;11.68;100.00
70133;BME280;57495;49.922;7.966;2023-05-13T05:14:26;100183.91;;;11.71;100.00
70133;BME280;57495;49.922;7.966;2023-05-13T05:16:28;100193.25;;;11.67;100.00
70133;BME280;57495;49.922;7.966;2023-05-13T05:18:29;100194.91;;;11.78;100.00
70133;BME280;57495;49.922;7.966;2023-05-13T05:20:30;100199.53;;;11.86;100.00
70133;BME280;57495;49.922;7.966;2023-05-13T05:22:32;100198.84;;;11.84;100.00
70133;BME280;57495;49.922;7.966;2023-05-13T05:24:35;100196.06;;;11.66;100.00
70133;BME280;57495;49.922;7.966;2023-05-13T05:26:38;100198.88;;;11.74;100.00
70133;BME280;57495;49.922;7.966;2023-05-13T05:28:41;100201.78;;;11.80;100.00
70133;BME280;57495;49.922;7.966;2023-05-13T05:30:43;100204.34;;;11.82;100.00
70133;BME280;57495;49.922;7.966;2023-05-13T05:32:44;100208.00;;;11.91;100.00
70133;BME280;57495;49.922;7.966;2023-05-13T05:34:46;100201.63;;;12.02;100.00
70133;BME280;57495;49.922;7.966;2023-05-13T05:36:47;100203.97;;;12.42;100.00
70133;BME280;57495;49.922;7.966;2023-05-13T05:38:49;100196.41;;;12.55;100.00
70133;BME280;57495;49.922;7.966;2023-05-13T05:40:50;100201.47;;;12.59;100.00
70133;BME280;57495;49.922;7.966;2023-05-13T05:42:53;100206.28;;;12.73;100.00
70133;BME280;57495;49.922;7.966;2023-05-13T05:44:54;100198.34;;;12.81;100.00
70133;BME280;57495;49.922;7.966;2023-05-13T05:46:56;100205.44;;;13.08;100.00
70133;BME280;57495;49.922;7.966;2023-05-13T05:48:57;100211.91;;;13.33;100.00
70133;BME280;57495;49.922;7.966;2023-05-13T05:50:58;100206.91;;;13.39;100.00
70133;BME280;57495;49.922;7.966;2023-05-13T05:53:00;100212.75;;;13.60;100.00
70133;BME280;57495;49.922;7.966;2023-05-13T05:55:01;100219.19;;;13.67;100.00
70133;BME280;57495;49.922;7.966;2023-05-13T05:57:03;100218.50;;;13.65;100.00
70133;BME280;57495;49.922;7.966;2023-05-13T05:59:06;100218.09;;;13.52;100.00
70133;BME280;57495;49.922;7.966;2023-05-13T06:01:07;100211.91;;;13.33;100.00
70133;BME280;57495;49.922;7.966;2023-05-13T06:03:09;100213.19;;;13.29;100.00
70133;BME280;57495;49.922;7.966;2023-05-13T06:05:10;100220.66;;;13.36;100.00
70133;BME280;57495;49.922;7.966;2023-05-13T06:07:12;100218.66;;;13.38;100.00
70133;BME280;57495;49.922;7.966;2023-05-13T06:09:13;100217.41;;;13.50;100.00
70133;BME280;57495;49.922;7.966;2023-05-13T06:11:15;100225.00;;;13.19;100.00
70133;BME280;57495;49.922;7.966;2023-05-13T06:13:16;100222.94;;;13.30;100.00
70133;BME280;57495;49.922;7.966;2023-05-13T06:15:19;100226.09;;;13.44;100.00
70133;BME280;57495;49.922;7.966;2023-05-13T06:17:20;100217.72;;;13.73;100.00
70133;BME280;57495;49.922;7.966;2023-05-13T06:19:21;100219.19;;;13.67;100.00
70133;BME280;57495;49.922;7.966;2023-05-13T06:21:23;100227.56;;;14.25;100.00
70133;BME280;57495;49.922;7.966;2023-05-13T06:23:24;100225.22;;;14.22;100.00
70133;BME280;57495;49.922;7.966;2023-05-13T06:25:26;100225.13;;;14.05;100.00
70133;BME280;57495;49.922;7.966;2023-05-13T06:27:27;100227.09;;;13.95;100.00
70133;BME280;57495;49.922;7.966;2023-05-13T06:29:29;100226.91;;;13.88;100.00
70133;BME280;57495;49.922;7.966;2023-05-13T06:31:31;100216.69;;;13.92;100.00
70133;BME280;57495;49.922;7.966;2023-05-13T06:33:33;100221.94;;;14.02;100.00
70133;BME280;57495;49.922;7.966;2023-05-13T06:35:34;100224.66;;;14.10;100.00
70133;BME280;57495;49.922;7.966;2023-05-13T06:37:36;100227.75;;;13.89;100.00
70133;BME280;57495;49.922;7.966;2023-05-13T06:39:37;100226.69;;;13.82;100.00
70133;BME280;57495;49.922;7.966;2023-05-13T06:41:39;100224.56;;;13.93;100.00
70133;BME280;57495;49.922;7.966;2023-05-13T06:43:40;100224.88;;;14.25;100.00
70133;BME280;57495;49.922;7.966;2023-05-13T06:45:44;100223.44;;;14.47;100.00
70133;BME280;57495;49.922;7.966;2023-05-13T06:47:47;100218.31;;;14.62;100.00
70133;BME280;57495;49.922;7.966;2023-05-13T06:49:49;100227.13;;;14.97;100.00
70133;BME280;57495;49.922;7.966;2023-05-13T06:51:50;100217.88;;;14.91;100.00
70133;BME280;57495;49.922;7.966;2023-05-13T06:53:52;100225.81;;;15.09;100.00
70133;BME280;57495;49.922;7.966;2023-05-13T06:55:53;100221.75;;;14.97;100.00
70133;BME280;57495;49.922;7.966;2023-05-13T06:57:54;100223.44;;;14.98;98.72
70133;BME280;57495;49.922;7.966;2023-05-13T06:59:56;100221.59;;;14.98;98.28
70133;BME280;57495;49.922;7.966;2023-05-13T07:01:57;100225.97;;;15.32;99.81
70133;BME280;57495;49.922;7.966;2023-05-13T07:04:00;100216.53;;;15.53;96.50
70133;BME280;57495;49.922;7.966;2023-05-13T07:06:01;100221.78;;;15.79;94.22
70133;BME280;57495;49.922;7.966;2023-05-13T07:08:03;100220.31;;;16.16;96.76
70133;BME280;57495;49.922;7.966;2023-05-13T07:10:08;100218.94;;;16.20;95.02
70133;BME280;57495;49.922;7.966;2023-05-13T07:12:09;100210.97;;;16.27;90.19
70133;BME280;57495;49.922;7.966;2023-05-13T07:14:11;100209.06;;;16.43;89.01
70133;BME280;57495;49.922;7.966;2023-05-13T07:16:12;100219.41;;;16.63;90.11
70133;BME280;57495;49.922;7.966;2023-05-13T07:18:14;100219.47;;;16.55;88.84
70133;BME280;57495;49.922;7.966;2023-05-13T07:20:17;100219.50;;;16.47;86.94
70133;BME280;57495;49.922;7.966;2023-05-13T07:22:21;100207.38;;;16.42;88.22
70133;BME280;57495;49.922;7.966;2023-05-13T07:24:22;100210.47;;;16.31;86.60
70133;BME280;57495;49.922;7.966;2023-05-13T07:26:23;100217.91;;;16.21;84.48
70133;BME280;57495;49.922;7.966;2023-05-13T07:28:25;100210.63;;;16.30;80.27
70133;BME280;57495;49.922;7.966;2023-05-13T07:30:26;100214.00;;;16.63;82.40
70133;BME280;57495;49.922;7.966;2023-05-13T07:32:28;100214.69;;;16.65;82.77
70133;BME280;57495;49.922;7.966;2023-05-13T07:34:29;100210.91;;;16.74;82.16
70133;BME280;57495;49.922;7.966;2023-05-13T07:36:32;100207.50;;;16.80;77.63
70133;BME280;57495;49.922;7.966;2023-05-13T07:38:34;100215.59;;;16.89;76.41
70133;BME280;57495;49.922;7.966;2023-05-13T07:40:35;100213.00;;;16.95;78.53
70133;BME280;57495;49.922;7.966;2023-05-13T07:42:37;100211.69;;;17.14;78.22
70133;BME280;57495;49.922;7.966;2023-05-13T07:44:39;100221.88;;;17.27;76.55
70133;BME280;57495;49.922;7.966;2023-05-13T07:46:40;100212.13;;;17.41;73.60
70133;BME280;57495;49.922;7.966;2023-05-13T07:48:41;100212.75;;;17.81;72.09
70133;BME280;57495;49.922;7.966;2023-05-13T07:50:43;100209.59;;;17.77;71.17
70133;BME280;57495;49.922;7.966;2023-05-13T07:52:46;100212.44;;;18.14;69.52
70133;BME280;57495;49.922;7.966;2023-05-13T07:54:48;100205.94;;;18.45;68.40
70133;BME280;57495;49.922;7.966;2023-05-13T07:56:49;100212.31;;;18.73;68.29
70133;BME280;57495;49.922;7.966;2023-05-13T07:58:51;100208.31;;;18.84;68.08
70133;BME280;57495;49.922;7.966;2023-05-13T08:00:52;100209.22;;;19.13;69.44
70133;BME280;57495;49.922;7.966;2023-05-13T08:02:54;100213.03;;;18.97;61.76
70133;BME280;57495;49.922;7.966;2023-05-13T08:04:55;100214.19;;;18.88;61.06
70133;BME280;57495;49.922;7.966;2023-05-13T08:06:56;100207.28;;;19.07;62.41
70133;BME280;57495;49.922;7.966;2023-05-13T08:08:59;100203.75;;;19.06;62.90
70133;BME280;57495;49.922;7.966;2023-05-13T08:11:01;100201.47;;;18.88;61.18
70133;BME280;57495;49.922;7.966;2023-05-13T08:13:02;100204.97;;;18.82;63.35
70133;BME280;57495;49.922;7.966;2023-05-13T08:15:05;100207.47;;;19.05;62.83
70133;BME280;57495;49.922;7.966;2023-05-13T08:17:07;100206.22;;;19.29;62.24
70133;BME280;57495;49.922;7.966;2023-05-13T08:19:08;100206.84;;;19.53;64.77
70133;BME280;57495;49.922;7.966;2023-05-13T08:21:10;100206.41;;;19.49;66.59
70133;BME280;57495;49.922;7.966;2023-05-13T08:23:11;100198.53;;;19.55;61.96
70133;BME280;57495;49.922;7.966;2023-05-13T08:25:14;100200.94;;;19.71;62.74
70133;BME280;57495;49.922;7.966;2023-05-13T08:27:16;100202.69;;;19.79;61.99
70133;BME280;57495;49.922;7.966;2023-05-13T08:29:17;100202.34;;;19.67;62.81
70133;BME280;57495;49.922;7.966;2023-05-13T08:31:18;100196.63;;;19.77;60.86
70133;BME280;57495;49.922;7.966;2023-05-13T08:33:20;100205.94;;;20.02;59.92
70133;BME280;57495;49.922;7.966;2023-05-13T08:35:21;100196.31;;;20.35;62.18
70133;BME280;57495;49.922;7.966;2023-05-13T08:37:23;100197.59;;;20.45;60.32
70133;BME280;57495;49.922;7.966;2023-05-13T08:39:24;100197.63;;;20.59;60.37
70133;BME280;57495;49.922;7.966;2023-05-13T08:41:28;100194.59;;;20.27;59.66
70133;BME280;57495;49.922;7.966;2023-05-13T08:43:31;100193.78;;;20.33;58.23
70133;BME280;57495;49.922;7.966;2023-05-13T08:45:33;100195.63;;;20.26;57.11
70133;BME280;57495;49.922;7.966;2023-05-13T08:47:42;100197.81;;;20.44;59.37
70133;BME280;57495;49.922;7.966;2023-05-13T08:49:49;100199.28;;;20.53;60.26
70133;BME280;57495;49.922;7.966;2023-05-13T08:51:51;100197.09;;;20.77;58.59
70133;BME280;57495;49.922;7.966;2023-05-13T08:53:53;100199.03;;;21.10;62.04
70133;BME280;57495;49.922;7.966;2023-05-13T08:55:55;100201.13;;;21.08;58.19
70133;BME280;57495;49.922;7.966;2023-05-13T08:57:58;100201.16;;;21.34;59.32
70133;BME280;57495;49.922;7.966;2023-05-13T09:00:00;100205.56;;;21.49;59.09
70133;BME280;57495;49.922;7.966;2023-05-13T09:02:03;100199.50;;;21.47;58.64
70133;BME280;57495;49.922;7.966;2023-05-13T09:04:05;100196.38;;;21.50;57.85
70133;BME280;57495;49.922;7.966;2023-05-13T09:06:08;100208.25;;;21.82;59.19
70133;BME280;57495;49.922;7.966;2023-05-13T09:08:10;100200.50;;;21.26;54.81
70133;BME280;57495;49.922;7.966;2023-05-13T09:10:11;100206.06;;;20.71;55.86
70133;BME280;57495;49.922;7.966;2023-05-13T09:12:40;100205.47;;;20.82;58.47
70133;BME280;57495;49.922;7.966;2023-05-13T09:14:43;100201.97;;;20.40;59.36
70133;BME280;57495;49.922;7.966;2023-05-13T09:16:46;100210.28;;;20.32;58.97
70133;BME280;57495;49.922;7.966;2023-05-13T09:18:47;100211.47;;;20.22;62.52
70133;BME280;57495;49.922;7.966;2023-05-13T09:20:49;100204.31;;;19.73;59.60
70133;BME280;57495;49.922;7.966;2023-05-13T09:22:51;100204.47;;;19.72;59.56
70133;BME280;57495;49.922;7.966;2023-05-13T09:24:53;100207.94;;;19.59;59.82
70133;BME280;57495;49.922;7.966;2023-05-13T09:26:54;100206.41;;;19.49;61.16
70133;BME280;57495;49.922;7.966;2023-05-13T09:29:15;100212.91;;;19.27;61.74
70133;BME280;57495;49.922;7.966;2023-05-13T09:31:31;100213.66;;;19.21;62.84
70133;BME280;57495;49.922;7.966;2023-05-13T09:33:32;100205.34;;;19.22;63.40
70133;BME280;57495;49.922;7.966;2023-05-13T09:35:35;100204.31;;;19.23;62.60
70133;BME280;57495;49.922;7.966;2023-05-13T09:37:37;100206.03;;;19.31;63.36
70133;BME280;57495;49.922;7.966;2023-05-13T09:39:40;100204.75;;;19.27;63.17
70133;BME280;57495;49.922;7.966;2023-05-13T09:41:41;100196.41;;;19.28;62.62
70133;BME280;57495;49.922;7.966;2023-05-13T09:43:43;100203.25;;;19.24;62.07
70133;BME280;57495;49.922;7.966;2023-05-13T09:45:44;100198.84;;;19.45;62.66
70133;BME280;57495;49.922;7.966;2023-05-13T09:47:49;100208.41;;;19.41;59.83
70133;BME280;57495;49.922;7.966;2023-05-13T09:49:54;100205.22;;;19.59;59.20
70133;BME280;57495;49.922;7.966;2023-05-13T09:51:55;100205.03;;;19.88;59.60
70133;BME280;57495;49.922;7.966;2023-05-13T09:54:02;100206.81;;;20.03;58.22
70133;BME280;57495;49.922;7.966;2023-05-13T09:56:04;100206.06;;;20.22;56.09
70133;BME280;57495;49.922;7.966;2023-05-13T09:58:09;100198.72;;;20.64;58.05
70133;BME280;57495;49.922;7.966;2023-05-13T10:00:11;100193.63;;;20.48;54.81
70133;BME280;57495;49.922;7.966;2023-05-13T10:02:14;100200.44;;;20.85;57.65
70133;BME280;57495;49.922;7.966;2023-05-13T10:04:19;100194.84;;;20.94;55.19
70133;BME280;57495;49.922;7.966;2023-05-13T10:06:23;100199.88;;;21.17;54.18
70133;BME280;57495;49.922;7.966;2023-05-13T10:08:26;100195.09;;;21.32;54.49
70133;BME280;57495;49.922;7.966;2023-05-13T10:10:29;100199.25;;;21.15;54.39
70133;BME280;57495;49.922;7.966;2023-05-13T10:12:32;100193.84;;;21.68;55.85
70133;BME280;57495;49.922;7.966;2023-05-13T10:14:34;100184.28;;;22.17;53.48
70133;BME280;57495;49.922;7.966;2023-05-13T10:16:37;100174.84;;;22.13;55.88
70133;BME280;57495;49.922;7.966;2023-05-13T10:18:38;100184.56;;;22.03;54.74
70133;BME280;57495;49.922;7.966;2023-05-13T10:20:41;100180.66;;;22.37;53.62
70133;BME280;57495;49.922;7.966;2023-05-13T10:22:43;100178.13;;;22.49;52.63
70133;BME280;57495;49.922;7.966;2023-05-13T10:24:45;100182.09;;;22.46;49.57
70133;BME280;57495;49.922;7.966;2023-05-13T10:26:46;100178.88;;;22.63;51.91
70133;BME280;57495;49.922;7.966;2023-05-13T10:28:49;100180.50;;;22.70;50.11
70133;BME280;57495;49.922;7.966;2023-05-13T10:30:50;100182.09;;;22.85;49.82
70133;BME280;57495;49.922;7.966;2023-05-13T10:32:52;100180.69;;;23.14;51.55